sensor_id;sensor_type;location;lat;lon;timestamp;P1;durP1;ratioP1;P2;durP2;ratioP2
61391;SDS011;47261;52.892;5.738;2024-02-14T00:01:03;7.60;;;3.47;;
61391;SDS011;47261;52.892;5.738;2024-02-14T00:03:29;12.65;;;4.32;;
61391;SDS011;47261;52.892;5.738;2024-02-14T00:05:55;9.10;;;3.55;;
61391;SDS011;47261;52.892;5.738;2024-02-14T00:08:22;11.13;;;4.20;;
61391;SDS011;47261;52.892;5.738;2024-02-14T00:10:48;9.63;;;4.72;;
61391;SDS011;47261;52.892;5.738;2024-02-14T00:13:14;14.13;;;5.57;;
61391;SDS011;47261;52.892;5.738;2024-02-14T00:15:40;9.87;;;4.20;;
61391;SDS011;47261;52.892;5.738;2024-02-14T00:18:05;9.80;;;3.17;;
61391;SDS011;47261;52.892;5.738;2024-02-14T00:20:31;12.33;;;4.80;;
61391;SDS011;47261;52.892;5.738;2024-02-14T00:22:57;8.38;;;3.47;;
61391;SDS011;47261;52.892;5.738;2024-02-14T00:25:23;13.25;;;4.90;;
61391;SDS011;47261;52.892;5.738;2024-02-14T00:27:48;12.03;;;5.70;;
61391;SDS011;47261;52.892;5.738;2024-02-14T00:30:15;10.52;;;4.88;;
61391;SDS011;47261;52.892;5.738;2024-02-14T00:32:40;8.45;;;3.85;;
61391;SDS011;47261;52.892;5.738;2024-02-14T00:35:06;7.30;;;3.30;;
61391;SDS011;47261;52.892;5.738;2024-02-14T00:37:32;4.95;;;2.13;;
61391;SDS011;47261;52.892;5.738;2024-02-14T00:39:59;10.60;;;4.68;;
61391;SDS011;47261;52.892;5.738;2024-02-14T00:42:24;12.30;;;6.17;;
61391;SDS011;47261;52.892;5.738;2024-02-14T00:44:50;8.98;;;3.90;;
61391;SDS011;47261;52.892;5.738;2024-02-14T00:47:16;6.45;;;2.78;;
61391;SDS011;47261;52.892;5.738;2024-02-14T00:49:42;5.03;;;2.30;;
61391;SDS011;47261;52.892;5.738;2024-02-14T00:52:08;8.35;;;3.28;;
61391;SDS011;47261;52.892;5.738;2024-02-14T00:54:34;9.05;;;3.85;;
61391;SDS011;47261;52.892;5.738;2024-02-14T00:57:00;9.15;;;5.47;;
61391;SDS011;47261;52.892;5.738;2024-02-14T00:59:26;9.00;;;3.80;;
61391;SDS011;47261;52.892;5.738;2024-02-14T01:01:51;8.63;;;4.23;;
61391;SDS011;47261;52.892;5.738;2024-02-14T01:04:17;7.45;;;3.97;;
61391;SDS011;47261;52.892;5.738;2024-02-14T01:06:43;8.80;;;3.40;;
61391;SDS011;47261;52.892;5.738;2024-02-14T01:09:09;9.55;;;5.45;;
61391;SDS011;47261;52.892;5.738;2024-02-14T01:11:34;9.13;;;3.20;;
61391;SDS011;47261;52.892;5.738;2024-02-14T01:14:03;7.65;;;4.00;;
61391;SDS011;47261;52.892;5.738;2024-02-14T01:16:29;8.35;;;4.45;;
61391;SDS011;47261;52.892;5.738;2024-02-14T01:18:54;6.27;;;2.63;;
61391;SDS011;47261;52.892;5.738;2024-02-14T01:21:20;6.10;;;2.75;;
61391;SDS011;47261;52.892;5.738;2024-02-14T01:23:46;6.17;;;3.33;;
61391;SDS011;47261;52.892;5.738;2024-02-14T01:26:12;8.93;;;5.03;;
61391;SDS011;47261;52.892;5.738;2024-02-14T01:28:37;6.20;;;3.20;;
61391;SDS011;47261;52.892;5.738;2024-02-14T01:31:03;8.77;;;4.07;;
61391;SDS011;47261;52.892;5.738;2024-02-14T01:33:29;9.43;;;5.23;;
61391;SDS011;47261;52.892;5.738;2024-02-14T01:35:55;6.32;;;3.30;;
61391;SDS011;47261;52.892;5.738;2024-02-14T01:38:22;6.05;;;3.00;;
61391;SDS011;47261;52.892;5.738;2024-02-14T01:40:48;6.65;;;3.58;;
61391;SDS011;47261;52.892;5.738;2024-02-14T01:43:14;6.00;;;3.00;;
61391;SDS011;47261;52.892;5.738;2024-02-14T01:45:39;8.40;;;3.80;;
61391;SDS011;47261;52.892;5.738;2024-02-14T01:48:05;7.20;;;3.78;;
61391;SDS011;47261;52.892;5.738;2024-02-14T01:50:33;7.07;;;3.63;;
61391;SDS011;47261;52.892;5.738;2024-02-14T01:53:00;7.80;;;3.47;;
61391;SDS011;47261;52.892;5.738;2024-02-14T01:55:27;6.30;;;2.93;;
61391;SDS011;47261;52.892;5.738;2024-02-14T01:57:54;6.20;;;3.03;;
61391;SDS011;47261;52.892;5.738;2024-02-14T02:00:20;8.63;;;4.78;;
61391;SDS011;47261;52.892;5.738;2024-02-14T02:02:46;6.88;;;3.72;;
61391;SDS011;47261;52.892;5.738;2024-02-14T02:05:14;7.53;;;3.55;;
61391;SDS011;47261;52.892;5.738;2024-02-14T02:07:41;7.97;;;4.30;;
61391;SDS011;47261;52.892;5.738;2024-02-14T02:10:09;9.52;;;4.90;;
61391;SDS011;47261;52.892;5.738;2024-02-14T02:12:36;6.68;;;3.78;;
61391;SDS011;47261;52.892;5.738;2024-02-14T02:15:04;10.52;;;5.03;;
61391;SDS011;47261;52.892;5.738;2024-02-14T02:17:31;7.40;;;3.70;;
61391;SDS011;47261;52.892;5.738;2024-02-14T02:19:59;9.80;;;4.83;;
61391;SDS011;47261;52.892;5.738;2024-02-14T02:22:25;10.32;;;5.47;;
61391;SDS011;47261;52.892;5.738;2024-02-14T02:24:54;8.50;;;5.03;;
61391;SDS011;47261;52.892;5.738;2024-02-14T02:27:20;9.88;;;5.05;;
61391;SDS011;47261;52.892;5.738;2024-02-14T02:29:45;8.53;;;5.93;;
61391;SDS011;47261;52.892;5.738;2024-02-14T02:32:12;7.15;;;4.35;;
61391;SDS011;47261;52.892;5.738;2024-02-14T02:34:38;6.77;;;4.00;;
61391;SDS011;47261;52.892;5.738;2024-02-14T02:37:04;8.70;;;5.47;;
61391;SDS011;47261;52.892;5.738;2024-02-14T02:39:32;6.88;;;5.10;;
61391;SDS011;47261;52.892;5.738;2024-02-14T02:42:00;8.43;;;5.30;;
61391;SDS011;47261;52.892;5.738;2024-02-14T02:44:27;8.98;;;5.05;;
61391;SDS011;47261;52.892;5.738;2024-02-14T02:46:52;11.52;;;6.43;;
61391;SDS011;47261;52.892;5.738;2024-02-14T02:49:18;9.03;;;5.90;;
61391;SDS011;47261;52.892;5.738;2024-02-14T02:51:43;7.23;;;3.90;;
61391;SDS011;47261;52.892;5.738;2024-02-14T02:54:09;10.10;;;5.95;;
61391;SDS011;47261;52.892;5.738;2024-02-14T02:56:36;9.18;;;6.00;;
61391;SDS011;47261;52.892;5.738;2024-02-14T02:59:02;9.30;;;5.43;;
61391;SDS011;47261;52.892;5.738;2024-02-14T03:01:28;9.80;;;6.38;;
61391;SDS011;47261;52.892;5.738;2024-02-14T03:03:59;10.80;;;6.30;;
61391;SDS011;47261;52.892;5.738;2024-02-14T03:06:25;8.70;;;5.90;;
61391;SDS011;47261;52.892;5.738;2024-02-14T03:08:51;10.00;;;6.95;;
61391;SDS011;47261;52.892;5.738;2024-02-14T03:11:18;10.30;;;6.97;;
61391;SDS011;47261;52.892;5.738;2024-02-14T03:13:45;10.83;;;6.67;;
61391;SDS011;47261;52.892;5.738;2024-02-14T03:16:13;9.30;;;5.78;;
61391;SDS011;47261;52.892;5.738;2024-02-14T03:18:40;10.30;;;6.28;;
61391;SDS011;47261;52.892;5.738;2024-02-14T03:21:06;12.75;;;7.68;;
61391;SDS011;47261;52.892;5.738;2024-02-14T03:23:31;11.93;;;8.23;;
61391;SDS011;47261;52.892;5.738;2024-02-14T03:25:57;11.48;;;6.30;;
61391;SDS011;47261;52.892;5.738;2024-02-14T03:28:23;12.03;;;7.20;;
61391;SDS011;47261;52.892;5.738;2024-02-14T03:30:48;14.18;;;8.00;;
61391;SDS011;47261;52.892;5.738;2024-02-14T03:33:14;15.17;;;7.70;;
61391;SDS011;47261;52.892;5.738;2024-02-14T03:35:40;11.70;;;7.80;;
61391;SDS011;47261;52.892;5.738;2024-02-14T03:38:06;10.90;;;5.97;;
61391;SDS011;47261;52.892;5.738;2024-02-14T03:40:34;10.95;;;6.60;;
61391;SDS011;47261;52.892;5.738;2024-02-14T03:43:01;14.00;;;8.07;;
61391;SDS011;47261;52.892;5.738;2024-02-14T03:45:27;11.63;;;5.30;;
61391;SDS011;47261;52.892;5.738;2024-02-14T03:47:55;11.27;;;5.82;;
61391;SDS011;47261;52.892;5.738;2024-02-14T03:50:21;9.38;;;5.07;;
61391;SDS011;47261;52.892;5.738;2024-02-14T03:52:48;11.27;;;5.78;;
61391;SDS011;47261;52.892;5.738;2024-02-14T03:55:14;10.53;;;5.43;;
61391;SDS011;47261;52.892;5.738;2024-02-14T03:57:42;9.60;;;4.50;;
61391;SDS011;47261;52.892;5.738;2024-02-14T04:00:10;9.73;;;5.13;;
61391;SDS011;47261;52.892;5.738;2024-02-14T04:02:37;9.43;;;4.88;;
61391;SDS011;47261;52.892;5.738;2024-02-14T04:05:02;8.67;;;5.00;;
61391;SDS011;47261;52.892;5.738;2024-02-14T04:07:29;8.88;;;4.47;;
61391;SDS011;47261;52.892;5.738;2024-02-14T04:09:54;11.50;;;5.32;;
61391;SDS011;47261;52.892;5.738;2024-02-14T04:12:21;8.05;;;4.43;;
61391;SDS011;47261;52.892;5.738;2024-02-14T04:14:46;12.30;;;5.17;;
61391;SDS011;47261;52.892;5.738;2024-02-14T04:17:12;8.10;;;4.72;;
61391;SDS011;47261;52.892;5.738;2024-02-14T04:19:38;12.03;;;5.50;;
61391;SDS011;47261;52.892;5.738;2024-02-14T04:22:04;9.85;;;4.43;;
61391;SDS011;47261;52.892;5.738;2024-02-14T04:24:33;7.95;;;3.97;;
61391;SDS011;47261;52.892;5.738;2024-02-14T04:26:59;13.50;;;5.50;;
61391;SDS011;47261;52.892;5.738;2024-02-14T04:29:27;8.40;;;3.40;;
61391;SDS011;47261;52.892;5.738;2024-02-14T04:31:55;8.93;;;3.80;;
61391;SDS011;47261;52.892;5.738;2024-02-14T04:34:21;15.70;;;5.03;;
61391;SDS011;47261;52.892;5.738;2024-02-14T04:36:47;10.10;;;3.75;;
61391;SDS011;47261;52.892;5.738;2024-02-14T04:39:12;7.93;;;3.90;;
61391;SDS011;47261;52.892;5.738;2024-02-14T04:41:38;11.32;;;3.38;;
61391;SDS011;47261;52.892;5.738;2024-02-14T04:44:04;10.90;;;3.37;;
61391;SDS011;47261;52.892;5.738;2024-02-14T04:46:33;11.38;;;3.67;;
61391;SDS011;47261;52.892;5.738;2024-02-14T04:49:04;14.18;;;3.55;;
61391;SDS011;47261;52.892;5.738;2024-02-14T04:51:30;11.23;;;3.20;;
61391;SDS011;47261;52.892;5.738;2024-02-14T04:53:56;11.80;;;3.15;;
61391;SDS011;47261;52.892;5.738;2024-02-14T04:56:25;17.50;;;4.10;;
61391;SDS011;47261;52.892;5.738;2024-02-14T04:58:52;14.50;;;3.45;;
61391;SDS011;47261;52.892;5.738;2024-02-14T05:01:18;11.27;;;3.35;;
61391;SDS011;47261;52.892;5.738;2024-02-14T05:03:44;15.45;;;3.30;;
61391;SDS011;47261;52.892;5.738;2024-02-14T05:06:09;10.13;;;3.10;;
61391;SDS011;47261;52.892;5.738;2024-02-14T05:08:35;11.70;;;2.53;;
61391;SDS011;47261;52.892;5.738;2024-02-14T05:11:01;23.33;;;5.17;;
61391;SDS011;47261;52.892;5.738;2024-02-14T05:13:27;18.98;;;2.88;;
61391;SDS011;47261;52.892;5.738;2024-02-14T05:15:53;23.25;;;4.05;;
61391;SDS011;47261;52.892;5.738;2024-02-14T05:18:18;23.27;;;3.50;;
61391;SDS011;47261;52.892;5.738;2024-02-14T05:20:44;18.53;;;3.77;;
61391;SDS011;47261;52.892;5.738;2024-02-14T05:23:13;28.48;;;4.43;;
61391;SDS011;47261;52.892;5.738;2024-02-14T05:25:38;29.02;;;3.25;;
61391;SDS011;47261;52.892;5.738;2024-02-14T05:28:04;16.13;;;3.30;;
61391;SDS011;47261;52.892;5.738;2024-02-14T05:30:30;24.73;;;3.65;;
61391;SDS011;47261;52.892;5.738;2024-02-14T05:32:57;16.95;;;3.15;;
61391;SDS011;47261;52.892;5.738;2024-02-14T05:35:22;23.63;;;3.67;;
61391;SDS011;47261;52.892;5.738;2024-02-14T05:37:48;28.55;;;3.60;;
61391;SDS011;47261;52.892;5.738;2024-02-14T05:40:15;17.38;;;3.33;;
61391;SDS011;47261;52.892;5.738;2024-02-14T05:42:42;20.80;;;3.80;;
61391;SDS011;47261;52.892;5.738;2024-02-14T05:45:09;29.90;;;3.40;;
61391;SDS011;47261;52.892;5.738;2024-02-14T05:47:35;25.10;;;3.20;;
61391;SDS011;47261;52.892;5.738;2024-02-14T05:50:00;20.63;;;3.25;;
61391;SDS011;47261;52.892;5.738;2024-02-14T05:52:26;18.95;;;3.25;;
61391;SDS011;47261;52.892;5.738;2024-02-14T05:54:52;27.67;;;2.87;;
61391;SDS011;47261;52.892;5.738;2024-02-14T05:57:19;35.05;;;4.10;;
61391;SDS011;47261;52.892;5.738;2024-02-14T05:59:45;30.20;;;4.13;;
61391;SDS011;47261;52.892;5.738;2024-02-14T06:02:10;23.47;;;3.50;;
61391;SDS011;47261;52.892;5.738;2024-02-14T06:04:36;24.23;;;3.75;;
61391;SDS011;47261;52.892;5.738;2024-02-14T06:07:02;23.83;;;3.40;;
61391;SDS011;47261;52.892;5.738;2024-02-14T06:09:30;35.03;;;3.65;;
61391;SDS011;47261;52.892;5.738;2024-02-14T06:11:56;21.67;;;3.10;;
61391;SDS011;47261;52.892;5.738;2024-02-14T06:14:21;23.95;;;4.65;;
61391;SDS011;47261;52.892;5.738;2024-02-14T06:16:47;23.37;;;5.03;;
61391;SDS011;47261;52.892;5.738;2024-02-14T06:19:12;19.83;;;3.13;;
61391;SDS011;47261;52.892;5.738;2024-02-14T06:21:38;18.43;;;3.23;;
61391;SDS011;47261;52.892;5.738;2024-02-14T06:24:04;24.97;;;4.20;;
61391;SDS011;47261;52.892;5.738;2024-02-14T06:26:30;16.83;;;3.10;;
61391;SDS011;47261;52.892;5.738;2024-02-14T06:28:56;27.80;;;3.25;;
61391;SDS011;47261;52.892;5.738;2024-02-14T06:31:22;26.13;;;3.53;;
61391;SDS011;47261;52.892;5.738;2024-02-14T06:33:48;30.65;;;3.80;;
61391;SDS011;47261;52.892;5.738;2024-02-14T06:36:13;39.73;;;4.27;;
61391;SDS011;47261;52.892;5.738;2024-02-14T06:38:39;21.75;;;3.00;;
61391;SDS011;47261;52.892;5.738;2024-02-14T06:41:05;20.07;;;3.83;;
61391;SDS011;47261;52.892;5.738;2024-02-14T06:43:31;31.50;;;3.43;;
61391;SDS011;47261;52.892;5.738;2024-02-14T06:45:57;26.75;;;3.72;;
61391;SDS011;47261;52.892;5.738;2024-02-14T06:48:22;27.37;;;4.07;;
61391;SDS011;47261;52.892;5.738;2024-02-14T06:50:50;17.45;;;2.45;;
61391;SDS011;47261;52.892;5.738;2024-02-14T06:53:15;20.20;;;3.42;;
61391;SDS011;47261;52.892;5.738;2024-02-14T06:55:42;29.17;;;4.05;;
61391;SDS011;47261;52.892;5.738;2024-02-14T06:58:08;24.63;;;4.00;;
61391;SDS011;47261;52.892;5.738;2024-02-14T07:00:33;28.02;;;4.25;;
61391;SDS011;47261;52.892;5.738;2024-02-14T07:02:59;23.20;;;3.13;;
61391;SDS011;47261;52.892;5.738;2024-02-14T07:05:24;33.53;;;4.03;;
61391;SDS011;47261;52.892;5.738;2024-02-14T07:07:52;35.83;;;3.75;;
61391;SDS011;47261;52.892;5.738;2024-02-14T07:10:18;23.23;;;2.88;;
61391;SDS011;47261;52.892;5.738;2024-02-14T07:12:44;15.93;;;2.70;;
61391;SDS011;47261;52.892;5.738;2024-02-14T07:15:09;29.53;;;3.53;;
61391;SDS011;47261;52.892;5.738;2024-02-14T07:17:36;37.77;;;3.83;;
61391;SDS011;47261;52.892;5.738;2024-02-14T07:20:03;18.65;;;3.60;;
61391;SDS011;47261;52.892;5.738;2024-02-14T07:22:30;18.85;;;2.33;;
61391;SDS011;47261;52.892;5.738;2024-02-14T07:24:56;27.73;;;3.67;;
61391;SDS011;47261;52.892;5.738;2024-02-14T07:27:21;28.77;;;3.65;;
61391;SDS011;47261;52.892;5.738;2024-02-14T07:29:49;28.77;;;3.78;;
61391;SDS011;47261;52.892;5.738;2024-02-14T07:32:14;32.13;;;3.50;;
61391;SDS011;47261;52.892;5.738;2024-02-14T07:34:41;22.60;;;3.33;;
61391;SDS011;47261;52.892;5.738;2024-02-14T07:37:07;36.80;;;3.72;;
61391;SDS011;47261;52.892;5.738;2024-02-14T07:39:33;45.00;;;4.67;;
61391;SDS011;47261;52.892;5.738;2024-02-14T07:42:02;24.65;;;2.90;;
61391;SDS011;47261;52.892;5.738;2024-02-14T07:44:27;37.38;;;5.30;;
61391;SDS011;47261;52.892;5.738;2024-02-14T07:46:53;13.13;;;2.80;;
61391;SDS011;47261;52.892;5.738;2024-02-14T07:49:19;23.17;;;3.63;;
61391;SDS011;47261;52.892;5.738;2024-02-14T07:51:45;39.90;;;5.93;;
61391;SDS011;47261;52.892;5.738;2024-02-14T07:54:10;18.90;;;3.42;;
61391;SDS011;47261;52.892;5.738;2024-02-14T07:56:36;30.90;;;4.30;;
61391;SDS011;47261;52.892;5.738;2024-02-14T07:59:02;26.90;;;3.97;;
61391;SDS011;47261;52.892;5.738;2024-02-14T08:01:29;24.25;;;3.08;;
61391;SDS011;47261;52.892;5.738;2024-02-14T08:03:55;12.57;;;2.20;;
61391;SDS011;47261;52.892;5.738;2024-02-14T08:06:21;16.80;;;3.23;;
61391;SDS011;47261;52.892;5.738;2024-02-14T08:08:46;20.20;;;1.93;;
61391;SDS011;47261;52.892;5.738;2024-02-14T08:11:16;27.02;;;3.13;;
61391;SDS011;47261;52.892;5.738;2024-02-14T08:13:42;16.60;;;3.30;;
61391;SDS011;47261;52.892;5.738;2024-02-14T08:16:08;14.35;;;2.60;;
61391;SDS011;47261;52.892;5.738;2024-02-14T08:18:34;16.43;;;2.60;;
61391;SDS011;47261;52.892;5.738;2024-02-14T08:21:00;13.30;;;2.28;;
61391;SDS011;47261;52.892;5.738;2024-02-14T08:23:26;15.60;;;2.60;;
61391;SDS011;47261;52.892;5.738;2024-02-14T08:25:51;28.25;;;3.17;;
61391;SDS011;47261;52.892;5.738;2024-02-14T08:28:17;19.70;;;2.63;;
61391;SDS011;47261;52.892;5.738;2024-02-14T08:30:46;14.23;;;2.25;;
61391;SDS011;47261;52.892;5.738;2024-02-14T08:33:12;18.33;;;2.45;;
61391;SDS011;47261;52.892;5.738;2024-02-14T08:35:38;20.03;;;2.80;;
61391;SDS011;47261;52.892;5.738;2024-02-14T08:38:04;24.45;;;3.13;;
61391;SDS011;47261;52.892;5.738;2024-02-14T08:40:31;20.50;;;2.65;;
61391;SDS011;47261;52.892;5.738;2024-02-14T08:42:57;13.53;;;3.00;;
61391;SDS011;47261;52.892;5.738;2024-02-14T08:45:24;14.05;;;3.15;;
61391;SDS011;47261;52.892;5.738;2024-02-14T08:47:50;18.30;;;2.20;;
61391;SDS011;47261;52.892;5.738;2024-02-14T08:50:16;15.07;;;3.37;;
61391;SDS011;47261;52.892;5.738;2024-02-14T08:52:42;13.57;;;2.60;;
61391;SDS011;47261;52.892;5.738;2024-02-14T08:55:08;12.65;;;3.92;;
61391;SDS011;47261;52.892;5.738;2024-02-14T08:57:39;14.20;;;2.88;;
61391;SDS011;47261;52.892;5.738;2024-02-14T09:00:06;13.70;;;2.73;;
61391;SDS011;47261;52.892;5.738;2024-02-14T09:02:32;12.23;;;3.22;;
61391;SDS011;47261;52.892;5.738;2024-02-14T09:05:00;11.68;;;2.78;;
61391;SDS011;47261;52.892;5.738;2024-02-14T09:07:26;10.07;;;3.22;;
61391;SDS011;47261;52.892;5.738;2024-02-14T09:09:52;8.50;;;2.90;;
61391;SDS011;47261;52.892;5.738;2024-02-14T09:12:17;8.52;;;2.40;;
61391;SDS011;47261;52.892;5.738;2024-02-14T09:14:43;10.23;;;2.90;;
61391;SDS011;47261;52.892;5.738;2024-02-14T09:17:09;11.60;;;3.15;;
61391;SDS011;47261;52.892;5.738;2024-02-14T09:19:35;8.03;;;3.17;;
61391;SDS011;47261;52.892;5.738;2024-02-14T09:22:01;11.27;;;2.20;;
61391;SDS011;47261;52.892;5.738;2024-02-14T09:24:31;8.32;;;2.33;;
61391;SDS011;47261;52.892;5.738;2024-02-14T09:26:57;11.70;;;3.13;;
61391;SDS011;47261;52.892;5.738;2024-02-14T09:29:23;10.30;;;3.60;;
61391;SDS011;47261;52.892;5.738;2024-02-14T09:31:50;13.93;;;3.33;;
61391;SDS011;47261;52.892;5.738;2024-02-14T09:34:16;8.98;;;3.90;;
61391;SDS011;47261;52.892;5.738;2024-02-14T09:36:44;7.83;;;3.27;;
61391;SDS011;47261;52.892;5.738;2024-02-14T09:39:10;10.45;;;3.17;;
61391;SDS011;47261;52.892;5.738;2024-02-14T09:41:40;19.37;;;4.40;;
61391;SDS011;47261;52.892;5.738;2024-02-14T09:44:08;16.48;;;4.88;;
61391;SDS011;47261;52.892;5.738;2024-02-14T09:46:37;10.13;;;3.80;;
61391;SDS011;47261;52.892;5.738;2024-02-14T09:49:04;12.67;;;5.10;;
61391;SDS011;47261;52.892;5.738;2024-02-14T09:51:31;17.52;;;5.28;;
61391;SDS011;47261;52.892;5.738;2024-02-14T09:53:56;14.70;;;4.55;;
61391;SDS011;47261;52.892;5.738;2024-02-14T09:56:25;17.10;;;3.70;;
61391;SDS011;47261;52.892;5.738;2024-02-14T09:58:52;10.60;;;4.17;;
61391;SDS011;47261;52.892;5.738;2024-02-14T10:01:24;16.45;;;4.95;;
61391;SDS011;47261;52.892;5.738;2024-02-14T10:03:50;9.43;;;3.50;;
61391;SDS011;47261;52.892;5.738;2024-02-14T10:06:17;8.50;;;3.35;;
61391;SDS011;47261;52.892;5.738;2024-02-14T10:08:52;8.88;;;3.03;;
61391;SDS011;47261;52.892;5.738;2024-02-14T10:11:19;10.13;;;3.27;;
61391;SDS011;47261;52.892;5.738;2024-02-14T10:13:49;8.57;;;3.65;;
61391;SDS011;47261;52.892;5.738;2024-02-14T10:16:16;10.00;;;3.97;;
61391;SDS011;47261;52.892;5.738;2024-02-14T10:18:44;9.40;;;3.38;;
61391;SDS011;47261;52.892;5.738;2024-02-14T10:21:16;7.70;;;3.17;;
61391;SDS011;47261;52.892;5.738;2024-02-14T10:23:44;10.97;;;3.87;;
61391;SDS011;47261;52.892;5.738;2024-02-14T10:26:12;9.27;;;3.15;;
61391;SDS011;47261;52.892;5.738;2024-02-14T10:28:44;11.23;;;4.20;;
61391;SDS011;47261;52.892;5.738;2024-02-14T10:31:25;14.43;;;4.00;;
61391;SDS011;47261;52.892;5.738;2024-02-14T10:33:52;10.52;;;5.63;;
61391;SDS011;47261;52.892;5.738;2024-02-14T10:36:21;11.73;;;5.53;;
61391;SDS011;47261;52.892;5.738;2024-02-14T10:38:47;7.93;;;4.07;;
61391;SDS011;47261;52.892;5.738;2024-02-14T10:41:15;10.20;;;3.58;;
61391;SDS011;47261;52.892;5.738;2024-02-14T10:43:41;9.10;;;4.45;;
61391;SDS011;47261;52.892;5.738;2024-02-14T10:46:10;13.07;;;4.85;;
61391;SDS011;47261;52.892;5.738;2024-02-14T10:48:47;14.50;;;4.93;;
61391;SDS011;47261;52.892;5.738;2024-02-14T10:51:14;7.82;;;4.13;;
61391;SDS011;47261;52.892;5.738;2024-02-14T10:53:41;8.25;;;4.53;;
61391;SDS011;47261;52.892;5.738;2024-02-14T10:56:10;8.73;;;4.30;;
61391;SDS011;47261;52.892;5.738;2024-02-14T10:58:44;9.20;;;4.65;;
61391;SDS011;47261;52.892;5.738;2024-02-14T11:01:12;8.83;;;4.57;;
61391;SDS011;47261;52.892;5.738;2024-02-14T11:03:40;8.90;;;5.00;;
61391;SDS011;47261;52.892;5.738;2024-02-14T11:06:06;12.98;;;5.20;;
61391;SDS011;47261;52.892;5.738;2024-02-14T11:08:32;10.00;;;4.17;;
61391;SDS011;47261;52.892;5.738;2024-02-14T11:10:59;10.43;;;5.40;;
61391;SDS011;47261;52.892;5.738;2024-02-14T11:13:28;10.52;;;4.13;;
61391;SDS011;47261;52.892;5.738;2024-02-14T11:15:59;9.50;;;4.07;;
61391;SDS011;47261;52.892;5.738;2024-02-14T11:18:26;13.38;;;5.57;;
61391;SDS011;47261;52.892;5.738;2024-02-14T11:20:56;9.73;;;4.27;;
61391;SDS011;47261;52.892;5.738;2024-02-14T11:23:22;9.13;;;4.93;;
61391;SDS011;47261;52.892;5.738;2024-02-14T11:25:49;7.93;;;3.50;;
61391;SDS011;47261;52.892;5.738;2024-02-14T11:28:15;7.68;;;4.25;;
61391;SDS011;47261;52.892;5.738;2024-02-14T11:30:44;8.63;;;3.93;;
61391;SDS011;47261;52.892;5.738;2024-02-14T11:33:20;6.40;;;3.10;;
61391;SDS011;47261;52.892;5.738;2024-02-14T11:35:52;7.53;;;3.20;;
61391;SDS011;47261;52.892;5.738;2024-02-14T11:38:19;5.35;;;2.42;;
61391;SDS011;47261;52.892;5.738;2024-02-14T11:40:45;6.65;;;2.85;;
61391;SDS011;47261;52.892;5.738;2024-02-14T11:43:11;6.37;;;2.23;;
61391;SDS011;47261;52.892;5.738;2024-02-14T11:45:38;5.10;;;2.10;;
61391;SDS011;47261;52.892;5.738;2024-02-14T11:48:07;5.93;;;2.15;;
61391;SDS011;47261;52.892;5.738;2024-02-14T11:50:34;4.68;;;1.80;;
61391;SDS011;47261;52.892;5.738;2024-02-14T11:52:59;5.87;;;2.60;;
61391;SDS011;47261;52.892;5.738;2024-02-14T11:55:29;6.90;;;3.08;;
61391;SDS011;47261;52.892;5.738;2024-02-14T11:57:55;6.82;;;2.35;;
61391;SDS011;47261;52.892;5.738;2024-02-14T12:00:21;6.65;;;2.65;;
61391;SDS011;47261;52.892;5.738;2024-02-14T12:02:47;7.80;;;3.57;;
61391;SDS011;47261;52.892;5.738;2024-02-14T12:05:15;9.02;;;4.10;;
61391;SDS011;47261;52.892;5.738;2024-02-14T12:07:41;8.15;;;3.97;;
61391;SDS011;47261;52.892;5.738;2024-02-14T12:10:07;7.63;;;2.70;;
61391;SDS011;47261;52.892;5.738;2024-02-14T12:12:34;8.33;;;3.57;;
61391;SDS011;47261;52.892;5.738;2024-02-14T12:15:02;15.32;;;6.25;;
61391;SDS011;47261;52.892;5.738;2024-02-14T12:17:28;10.13;;;4.53;;
61391;SDS011;47261;52.892;5.738;2024-02-14T12:20:05;8.82;;;4.15;;
61391;SDS011;47261;52.892;5.738;2024-02-14T12:22:34;12.60;;;6.13;;
61391;SDS011;47261;52.892;5.738;2024-02-14T12:24:59;11.70;;;5.63;;
61391;SDS011;47261;52.892;5.738;2024-02-14T12:27:26;8.10;;;3.40;;
61391;SDS011;47261;52.892;5.738;2024-02-14T12:29:51;6.13;;;3.80;;
61391;SDS011;47261;52.892;5.738;2024-02-14T12:32:17;13.57;;;5.50;;
61391;SDS011;47261;52.892;5.738;2024-02-14T12:34:46;7.43;;;3.73;;
61391;SDS011;47261;52.892;5.738;2024-02-14T12:37:12;8.38;;;4.80;;
61391;SDS011;47261;52.892;5.738;2024-02-14T12:39:38;10.45;;;4.72;;
61391;SDS011;47261;52.892;5.738;2024-02-14T12:42:04;12.00;;;4.60;;
61391;SDS011;47261;52.892;5.738;2024-02-14T12:44:30;13.00;;;6.23;;
61391;SDS011;47261;52.892;5.738;2024-02-14T12:46:56;10.02;;;5.53;;
61391;SDS011;47261;52.892;5.738;2024-02-14T12:49:22;10.87;;;6.07;;
61391;SDS011;47261;52.892;5.738;2024-02-14T12:51:51;8.13;;;4.10;;
61391;SDS011;47261;52.892;5.738;2024-02-14T12:54:16;9.00;;;3.92;;
61391;SDS011;47261;52.892;5.738;2024-02-14T12:56:42;7.37;;;3.67;;
61391;SDS011;47261;52.892;5.738;2024-02-14T12:59:09;8.73;;;4.60;;
61391;SDS011;47261;52.892;5.738;2024-02-14T13:01:43;6.60;;;3.30;;
61391;SDS011;47261;52.892;5.738;2024-02-14T13:04:08;8.33;;;4.33;;
61391;SDS011;47261;52.892;5.738;2024-02-14T13:06:34;7.60;;;3.97;;
61391;SDS011;47261;52.892;5.738;2024-02-14T13:09:02;7.88;;;4.03;;
61391;SDS011;47261;52.892;5.738;2024-02-14T13:11:30;8.02;;;3.53;;
61391;SDS011;47261;52.892;5.738;2024-02-14T13:13:57;6.03;;;3.70;;
61391;SDS011;47261;52.892;5.738;2024-02-14T13:16:23;6.93;;;3.57;;
61391;SDS011;47261;52.892;5.738;2024-02-14T13:18:48;7.15;;;4.22;;
61391;SDS011;47261;52.892;5.738;2024-02-14T13:21:14;7.68;;;4.35;;
61391;SDS011;47261;52.892;5.738;2024-02-14T13:23:41;6.53;;;3.63;;
61391;SDS011;47261;52.892;5.738;2024-02-14T13:26:08;6.07;;;3.60;;
61391;SDS011;47261;52.892;5.738;2024-02-14T13:28:33;6.80;;;3.13;;
61391;SDS011;47261;52.892;5.738;2024-02-14T13:31:00;6.63;;;3.05;;
61391;SDS011;47261;52.892;5.738;2024-02-14T13:33:25;4.60;;;2.87;;
61391;SDS011;47261;52.892;5.738;2024-02-14T13:35:51;6.20;;;2.95;;
61391;SDS011;47261;52.892;5.738;2024-02-14T13:38:17;5.93;;;2.90;;
61391;SDS011;47261;52.892;5.738;2024-02-14T13:40:42;4.90;;;2.13;;
61391;SDS011;47261;52.892;5.738;2024-02-14T13:43:08;6.07;;;2.90;;
61391;SDS011;47261;52.892;5.738;2024-02-14T13:45:42;4.85;;;2.38;;
61391;SDS011;47261;52.892;5.738;2024-02-14T13:48:09;5.65;;;2.58;;
61391;SDS011;47261;52.892;5.738;2024-02-14T13:50:36;4.88;;;2.15;;
61391;SDS011;47261;52.892;5.738;2024-02-14T13:53:03;7.57;;;3.92;;
61391;SDS011;47261;52.892;5.738;2024-02-14T13:55:28;7.10;;;3.53;;
61391;SDS011;47261;52.892;5.738;2024-02-14T13:57:54;5.40;;;2.65;;
61391;SDS011;47261;52.892;5.738;2024-02-14T14:00:20;4.97;;;2.17;;
61391;SDS011;47261;52.892;5.738;2024-02-14T14:02:45;8.00;;;4.25;;
61391;SDS011;47261;52.892;5.738;2024-02-14T14:05:11;8.83;;;3.50;;
61391;SDS011;47261;52.892;5.738;2024-02-14T14:07:40;7.07;;;4.10;;
61391;SDS011;47261;52.892;5.738;2024-02-14T14:10:06;7.47;;;3.67;;
61391;SDS011;47261;52.892;5.738;2024-02-14T14:12:34;5.60;;;2.13;;
61391;SDS011;47261;52.892;5.738;2024-02-14T14:15:00;6.93;;;3.22;;
61391;SDS011;47261;52.892;5.738;2024-02-14T14:17:26;8.55;;;3.38;;
61391;SDS011;47261;52.892;5.738;2024-02-14T14:19:52;6.37;;;3.10;;
61391;SDS011;47261;52.892;5.738;2024-02-14T14:22:18;5.05;;;2.30;;
61391;SDS011;47261;52.892;5.738;2024-02-14T14:24:44;5.90;;;2.40;;
61391;SDS011;47261;52.892;5.738;2024-02-14T14:27:10;4.47;;;2.10;;
61391;SDS011;47261;52.892;5.738;2024-02-14T14:29:42;4.40;;;2.33;;
61391;SDS011;47261;52.892;5.738;2024-02-14T14:32:08;4.22;;;2.22;;
61391;SDS011;47261;52.892;5.738;2024-02-14T14:34:34;5.97;;;2.75;;
61391;SDS011;47261;52.892;5.738;2024-02-14T14:37:01;6.03;;;2.70;;